sensor_id;sensor_type;location;lat;lon;timestamp;pressure;altitude;pressure_sealevel;temperature;humidity
65756;BME280;52489;47.502;18.940;2023-02-03T00:00:07;98665.28;;;0.42;86.44
65756;BME280;52489;47.502;18.940;2023-02-03T00:01:10;98658.06;;;0.33;86.46
65756;BME280;52489;47.502;18.940;2023-02-03T00:02:13;98659.03;;;0.32;86.84
65756;BME280;52489;47.502;18.940;2023-02-03T00:03:16;98668.41;;;0.26;86.93
65756;BME280;52489;47.502;18.940;2023-02-03T00:04:19;98663.62;;;0.30;86.92
65756;BME280;52489;47.502;18.940;2023-02-03T00:05:22;98664.00;;;0.33;86.55
65756;BME280;52489;47.502;18.940;2023-02-03T00:06:26;98669.19;;;0.27;86.84
65756;BME280;52489;47.502;18.940;2023-02-03T00:07:29;98674.06;;;0.35;86.43
65756;BME280;52489;47.502;18.940;2023-02-03T00:08:32;98669.28;;;0.38;86.14
65756;BME280;52489;47.502;18.940;2023-02-03T00:09:36;98669.16;;;0.33;85.78
65756;BME280;52489;47.502;18.940;2023-02-03T00:10:39;98675.44;;;0.37;85.62
65756;BME280;52489;47.502;18.940;2023-02-03T00:11:42;98670.09;;;0.39;85.17
65756;BME280;52489;47.502;18.940;2023-02-03T00:12:49;98669.34;;;0.32;85.21
65756;BME280;52489;47.502;18.940;2023-02-03T00:13:54;98671.41;;;0.23;85.55
65756;BME280;52489;47.502;18.940;2023-02-03T00:14:57;98675.09;;;0.34;85.10
65756;BME280;52489;47.502;18.940;2023-02-03T00:16:03;98676.13;;;0.26;84.33
65756;BME280;52489;47.502;18.940;2023-02-03T00:17:08;98677.16;;;0.25;84.37
65756;BME280;52489;47.502;18.940;2023-02-03T00:18:11;98681.94;;;0.21;84.25
65756;BME280;52489;47.502;18.940;2023-02-03T00:19:14;98679.72;;;0.25;83.98
65756;BME280;52489;47.502;18.940;2023-02-03T00:20:19;98677.84;;;0.32;82.82
65756;BME280;52489;47.502;18.940;2023-02-03T00:21:22;98678.94;;;0.25;82.97
65756;BME280;52489;47.502;18.940;2023-02-03T00:22:25;98668.56;;;0.31;82.66
65756;BME280;52489;47.502;18.940;2023-02-03T00:23:28;98685.47;;;0.27;82.40
65756;BME280;52489;47.502;18.940;2023-02-03T00:24:33;98673.19;;;0.22;82.50
65756;BME280;52489;47.502;18.940;2023-02-03T00:25:37;98686.19;;;0.34;82.19
65756;BME280;52489;47.502;18.940;2023-02-03T00:26:42;98688.47;;;0.24;82.31
65756;BME280;52489;47.502;18.940;2023-02-03T00:27:45;98679.72;;;0.25;82.10
65756;BME280;52489;47.502;18.940;2023-02-03T00:28:48;98689.44;;;0.23;81.85
65756;BME280;52489;47.502;18.940;2023-02-03T00:29:51;98696.81;;;0.19;81.73
65756;BME280;52489;47.502;18.940;2023-02-03T00:30:54;98690.37;;;0.29;80.48
65756;BME280;52489;47.502;18.940;2023-02-03T00:31:57;98704.34;;;0.21;79.30
65756;BME280;52489;47.502;18.940;2023-02-03T00:33:01;98709.69;;;0.19;79.54
65756;BME280;52489;47.502;18.940;2023-02-03T00:34:04;98711.59;;;0.31;78.28
65756;BME280;52489;47.502;18.940;2023-02-03T00:35:07;98718.56;;;0.23;77.69
65756;BME280;52489;47.502;18.940;2023-02-03T00:36:10;98716.16;;;0.29;77.37
65756;BME280;52489;47.502;18.940;2023-02-03T00:37:14;98719.94;;;0.26;77.33
65756;BME280;52489;47.502;18.940;2023-02-03T00:38:17;98714.38;;;0.29;77.05
65756;BME280;52489;47.502;18.940;2023-02-03T00:39:21;98713.22;;;0.25;77.15
65756;BME280;52489;47.502;18.940;2023-02-03T00:40:25;98726.88;;;0.26;77.14
65756;BME280;52489;47.502;18.940;2023-02-03T00:41:29;98712.63;;;0.23;77.50
65756;BME280;52489;47.502;18.940;2023-02-03T00:42:35;98713.84;;;0.20;77.41
65756;BME280;52489;47.502;18.940;2023-02-03T00:43:42;98715.44;;;0.21;77.18
65756;BME280;52489;47.502;18.940;2023-02-03T00:44:45;98721.78;;;0.19;76.60
65756;BME280;52489;47.502;18.940;2023-02-03T00:45:48;98734.03;;;0.23;76.51
65756;BME280;52489;47.502;18.940;2023-02-03T00:46:52;98732.53;;;0.16;76.51
65756;BME280;52489;47.502;18.940;2023-02-03T00:47:55;98717.59;;;0.25;76.25
65756;BME280;52489;47.502;18.940;2023-02-03T00:48:58;98712.06;;;0.21;76.23
65756;BME280;52489;47.502;18.940;2023-02-03T00:50:00;98720.53;;;0.28;76.28
65756;BME280;52489;47.502;18.940;2023-02-03T00:51:04;98733.84;;;0.25;76.05
65756;BME280;52489;47.502;18.940;2023-02-03T00:52:07;98724.31;;;0.26;75.50
65756;BME280;52489;47.502;18.940;2023-02-03T00:53:09;98731.41;;;0.30;74.96
65756;BME280;52489;47.502;18.940;2023-02-03T00:54:12;98716.38;;;0.27;74.24
65756;BME280;52489;47.502;18.940;2023-02-03T00:55:15;98724.38;;;0.19;74.34
65756;BME280;52489;47.502;18.940;2023-02-03T00:56:22;98716.00;;;0.23;74.19
65756;BME280;52489;47.502;18.940;2023-02-03T00:57:25;98730.09;;;0.21;73.91
65756;BME280;52489;47.502;18.940;2023-02-03T00:58:28;98731.88;;;0.20;74.03
65756;BME280;52489;47.502;18.940;2023-02-03T00:59:31;98717.38;;;0.26;73.11
65756;BME280;52489;47.502;18.940;2023-02-03T01:00:34;98729.56;;;0.37;72.41
65756;BME280;52489;47.502;18.940;2023-02-03T01:01:37;98734.00;;;0.30;72.83
65756;BME280;52489;47.502;18.940;2023-02-03T01:02:44;98731.69;;;0.22;73.03
65756;BME280;52489;47.502;18.940;2023-02-03T01:03:47;98731.31;;;0.18;73.28
65756;BME280;52489;47.502;18.940;2023-02-03T01:04:51;98736.66;;;0.17;73.38
65756;BME280;52489;47.502;18.940;2023-02-03T01:05:54;98740.03;;;0.17;73.08
65756;BME280;52489;47.502;18.940;2023-02-03T01:06:57;98740.12;;;0.29;72.27
65756;BME280;52489;47.502;18.940;2023-02-03T01:08:01;98748.69;;;0.30;72.01
65756;BME280;52489;47.502;18.940;2023-02-03T01:09:06;98745.16;;;0.24;72.18
65756;BME280;52489;47.502;18.940;2023-02-03T01:10:10;98747.12;;;0.22;71.83
65756;BME280;52489;47.502;18.940;2023-02-03T01:11:15;98737.41;;;0.24;71.72
65756;BME280;52489;47.502;18.940;2023-02-03T01:12:19;98740.97;;;0.23;71.36
65756;BME280;52489;47.502;18.940;2023-02-03T01:13:22;98749.28;;;0.25;71.69
65756;BME280;52489;47.502;18.940;2023-02-03T01:14:29;98743.56;;;0.23;72.03
65756;BME280;52489;47.502;18.940;2023-02-03T01:15:31;98754.88;;;0.22;72.00
65756;BME280;52489;47.502;18.940;2023-02-03T01:16:34;98748.41;;;0.13;72.64
65756;BME280;52489;47.502;18.940;2023-02-03T01:17:39;98750.37;;;0.11;72.54
65756;BME280;52489;47.502;18.940;2023-02-03T01:18:43;98749.19;;;0.13;72.02
65756;BME280;52489;47.502;18.940;2023-02-03T01:19:46;98752.34;;;0.15;72.06
65756;BME280;52489;47.502;18.940;2023-02-03T01:20:49;98742.66;;;0.11;72.21
65756;BME280;52489;47.502;18.940;2023-02-03T01:21:52;98757.38;;;0.04;72.41
65756;BME280;52489;47.502;18.940;2023-02-03T01:22:55;98759.97;;;0.04;72.45
65756;BME280;52489;47.502;18.940;2023-02-03T01:24:03;98750.06;;;0.01;72.52
65756;BME280;52489;47.502;18.940;2023-02-03T01:25:11;98744.13;;;0.00;72.45
65756;BME280;52489;47.502;18.940;2023-02-03T01:26:16;98755.22;;;0.01;72.22
65756;BME280;52489;47.502;18.940;2023-02-03T01:27:19;98750.06;;;0.01;72.13
65756;BME280;52489;47.502;18.940;2023-02-03T01:28:23;98759.41;;;-0.05;72.74
65756;BME280;52489;47.502;18.940;2023-02-03T01:29:27;98749.66;;;0.04;72.49
65756;BME280;52489;47.502;18.940;2023-02-03T01:30:30;98743.13;;;0.01;72.69
65756;BME280;52489;47.502;18.940;2023-02-03T01:31:36;98745.91;;;-0.01;72.51
65756;BME280;52489;47.502;18.940;2023-02-03T01:32:44;98750.84;;;0.01;72.31
65756;BME280;52489;47.502;18.940;2023-02-03T01:33:46;98757.81;;;0.01;72.30
65756;BME280;52489;47.502;18.940;2023-02-03T01:34:50;98746.50;;;0.02;72.50
65756;BME280;52489;47.502;18.940;2023-02-03T01:35:53;98754.16;;;0.08;72.30
65756;BME280;52489;47.502;18.940;2023-02-03T01:36:56;98753.84;;;-0.02;72.28
65756;BME280;52489;47.502;18.940;2023-02-03T01:37:59;98748.34;;;-0.12;72.35
65756;BME280;52489;47.502;18.940;2023-02-03T01:39:03;98749.97;;;-0.18;72.27
65756;BME280;52489;47.502;18.940;2023-02-03T01:40:07;98753.09;;;-0.09;71.75
65756;BME280;52489;47.502;18.940;2023-02-03T01:41:13;98742.16;;;-0.05;71.36
65756;BME280;52489;47.502;18.940;2023-02-03T01:42:17;98753.84;;;-0.02;71.39
65756;BME280;52489;47.502;18.940;2023-02-03T01:43:37;98760.78;;;-0.03;71.14
65756;BME280;52489;47.502;18.940;2023-02-03T01:44:47;98753.63;;;-0.01;70.63
65756;BME280;52489;47.502;18.940;2023-02-03T01:45:52;98753.31;;;-0.11;70.76
65756;BME280;52489;47.502;18.940;2023-02-03T01:46:56;98756.66;;;-0.10;70.83
65756;BME280;52489;47.502;18.940;2023-02-03T01:47:59;98759.47;;;-0.18;71.81
65756;BME280;52489;47.502;18.940;2023-02-03T01:50:31;98766.41;;;-0.19;71.32
65756;BME280;52489;47.502;18.940;2023-02-03T01:51:41;98762.31;;;-0.27;71.41
65756;BME280;52489;47.502;18.940;2023-02-03T01:52:49;98766.22;;;-0.17;71.15
65756;BME280;52489;47.502;18.940;2023-02-03T01:53:55;98765.28;;;-0.30;71.33
65756;BME280;52489;47.502;18.940;2023-02-03T01:55:02;98766.25;;;-0.24;70.98
65756;BME280;52489;47.502;18.940;2023-02-03T01:56:06;98757.72;;;-0.25;70.98
65756;BME280;52489;47.502;18.940;2023-02-03T01:57:14;98765.28;;;-0.23;70.90
65756;BME280;52489;47.502;18.940;2023-02-03T01:58:24;98762.50;;;-0.28;71.54
65756;BME280;52489;47.502;18.940;2023-02-03T01:59:32;98773.13;;;-0.18;71.13
65756;BME280;52489;47.502;18.940;2023-02-03T02:00:36;98764.31;;;-0.29;71.52
65756;BME280;52489;47.502;18.940;2023-02-03T02:01:39;98769.22;;;-0.20;71.22
65756;BME280;52489;47.502;18.940;2023-02-03T02:02:45;98765.69;;;-0.33;71.89
65756;BME280;52489;47.502;18.940;2023-02-03T02:03:52;98767.69;;;-0.35;72.03
65756;BME280;52489;47.502;18.940;2023-02-03T02:06:32;98776.81;;;-0.39;72.23
65756;BME280;52489;47.502;18.940;2023-02-03T02:07:36;98770.28;;;-0.41;71.93
65756;BME280;52489;47.502;18.940;2023-02-03T02:08:43;98772.06;;;-0.42;72.25
65756;BME280;52489;47.502;18.940;2023-02-03T02:09:48;98778.28;;;-0.50;72.47
65756;BME280;52489;47.502;18.940;2023-02-03T02:10:52;98768.75;;;-0.49;72.13
65756;BME280;52489;47.502;18.940;2023-02-03T02:11:55;98777.44;;;-0.43;71.89
65756;BME280;52489;47.502;18.940;2023-02-03T02:13:00;98769.91;;;-0.45;71.64
65756;BME280;52489;47.502;18.940;2023-02-03T02:14:05;98774.09;;;-0.51;71.28
65756;BME280;52489;47.502;18.940;2023-02-03T02:15:09;98778.28;;;-0.50;71.47
65756;BME280;52489;47.502;18.940;2023-02-03T02:18:06;98778.47;;;-0.51;71.61
65756;BME280;52489;47.502;18.940;2023-02-03T02:19:50;98775.09;;;-0.52;71.17
65756;BME280;52489;47.502;18.940;2023-02-03T02:22:23;98776.66;;;-0.51;70.36
65756;BME280;52489;47.502;18.940;2023-02-03T02:29:11;98782.94;;;-0.33;69.47
65756;BME280;52489;47.502;18.940;2023-02-03T02:31:55;98778.97;;;-0.36;70.47
65756;BME280;52489;47.502;18.940;2023-02-03T02:33:47;98769.31;;;-0.40;70.47
65756;BME280;52489;47.502;18.940;2023-02-03T02:36:15;98780.41;;;-0.40;70.92
65756;BME280;52489;47.502;18.940;2023-02-03T02:37:59;98783.16;;;-0.35;70.96
65756;BME280;52489;47.502;18.940;2023-02-03T02:40:46;98780.06;;;-0.50;71.71
65756;BME280;52489;47.502;18.940;2023-02-03T02:41:59;98781.25;;;-0.53;72.04
65756;BME280;52489;47.502;18.940;2023-02-03T02:43:09;98783.75;;;-0.39;71.58
65756;BME280;52489;47.502;18.940;2023-02-03T02:44:32;98782.78;;;-0.45;71.73
65756;BME280;52489;47.502;18.940;2023-02-03T02:46:48;98786.59;;;-0.54;72.85
65756;BME280;52489;47.502;18.940;2023-02-03T02:47:57;98797.50;;;-0.59;72.90
65756;BME280;52489;47.502;18.940;2023-02-03T02:49:14;98793.72;;;-0.56;72.91
65756;BME280;52489;47.502;18.940;2023-02-03T02:50:27;98783.41;;;-0.56;72.80
65756;BME280;52489;47.502;18.940;2023-02-03T02:51:35;98797.91;;;-0.62;73.24
65756;BME280;52489;47.502;18.940;2023-02-03T02:52:40;98793.72;;;-0.56;72.99
65756;BME280;52489;47.502;18.940;2023-02-03T02:53:49;98795.31;;;-0.55;72.99
65756;BME280;52489;47.502;18.940;2023-02-03T02:54:59;98799.88;;;-0.57;73.26
65756;BME280;52489;47.502;18.940;2023-02-03T02:56:06;98794.34;;;-0.61;73.14
65756;BME280;52489;47.502;18.940;2023-02-03T02:57:15;98799.22;;;-0.46;72.53
65756;BME280;52489;47.502;18.940;2023-02-03T02:58:20;98808.38;;;-0.57;72.79
65756;BME280;52489;47.502;18.940;2023-02-03T02:59:25;98798.28;;;-0.58;72.55
65756;BME280;52489;47.502;18.940;2023-02-03T03:00:29;98797.28;;;-0.57;72.53
65756;BME280;52489;47.502;18.940;2023-02-03T03:01:33;98809.38;;;-0.58;72.50
65756;BME280;52489;47.502;18.940;2023-02-03T03:02:36;98797.69;;;-0.60;72.75
65756;BME280;52489;47.502;18.940;2023-02-03T03:03:39;98800.50;;;-0.62;72.40
65756;BME280;52489;47.502;18.940;2023-02-03T03:04:46;98804.03;;;-0.63;72.55
65756;BME280;52489;47.502;18.940;2023-02-03T03:06:01;98809.97;;;-0.62;72.35
65756;BME280;52489;47.502;18.940;2023-02-03T03:07:09;98808.22;;;-0.62;72.19
65756;BME280;52489;47.502;18.940;2023-02-03T03:08:15;98806.81;;;-0.64;71.89
65756;BME280;52489;47.502;18.940;2023-02-03T03:10:30;98802.41;;;-0.51;71.78
65756;BME280;52489;47.502;18.940;2023-02-03T03:11:39;98802.03;;;-0.54;71.87
65756;BME280;52489;47.502;18.940;2023-02-03T03:12:50;98806.19;;;-0.53;71.65
65756;BME280;52489;47.502;18.940;2023-02-03T03:13:55;98803.25;;;-0.63;72.29
65756;BME280;52489;47.502;18.940;2023-02-03T03:15:02;98804.81;;;-0.62;71.74
65756;BME280;52489;47.502;18.940;2023-02-03T03:16:08;98792.16;;;-0.57;71.38
65756;BME280;52489;47.502;18.940;2023-02-03T03:17:20;98794.94;;;-0.59;71.38
65756;BME280;52489;47.502;18.940;2023-02-03T03:18:32;98799.53;;;-0.67;71.72
65756;BME280;52489;47.502;18.940;2023-02-03T03:19:40;98795.31;;;-0.55;71.49
65756;BME280;52489;47.502;18.940;2023-02-03T03:20:46;98799.03;;;-0.51;71.13
65756;BME280;52489;47.502;18.940;2023-02-03T03:21:54;98802.63;;;-0.52;70.55
65756;BME280;52489;47.502;18.940;2023-02-03T03:23:05;98788.19;;;-0.60;70.71
65756;BME280;52489;47.502;18.940;2023-02-03T03:24:11;98791.13;;;-0.56;70.50
65756;BME280;52489;47.502;18.940;2023-02-03T03:25:25;98793.34;;;-0.60;70.77
65756;BME280;52489;47.502;18.940;2023-02-03T03:27:22;98797.88;;;-0.55;69.94
65756;BME280;52489;47.502;18.940;2023-02-03T03:28:04;98789.97;;;-0.60;70.27
65756;BME280;52489;47.502;18.940;2023-02-03T03:29:16;98792.56;;;-0.60;70.39
65756;BME280;52489;47.502;18.940;2023-02-03T03:30:24;98792.97;;;-0.63;70.26
65756;BME280;52489;47.502;18.940;2023-02-03T03:31:29;98794.72;;;-0.57;70.09
65756;BME280;52489;47.502;18.940;2023-02-03T03:32:32;98792.38;;;-0.65;70.35
65756;BME280;52489;47.502;18.940;2023-02-03T03:33:36;98790.78;;;-0.66;70.06
65756;BME280;52489;47.502;18.940;2023-02-03T03:34:40;98782.88;;;-0.65;70.07
65756;BME280;52489;47.502;18.940;2023-02-03T03:37:35;98787.81;;;-0.63;70.22
65756;BME280;52489;47.502;18.940;2023-02-03T03:38:46;98785.88;;;-0.75;70.60
65756;BME280;52489;47.502;18.940;2023-02-03T03:39:55;98785.50;;;-0.78;71.25
65756;BME280;52489;47.502;18.940;2023-02-03T03:41:09;98783.47;;;-0.70;70.81
65756;BME280;52489;47.502;18.940;2023-02-03T03:43:11;98784.25;;;-0.62;70.83
65756;BME280;52489;47.502;18.940;2023-02-03T03:44:17;98782.69;;;-0.70;71.38
65756;BME280;52489;47.502;18.940;2023-02-03T03:45:31;98786.91;;;-0.82;72.09
65756;BME280;52489;47.502;18.940;2023-02-03T03:46:42;98786.09;;;-0.76;72.09
65756;BME280;52489;47.502;18.940;2023-02-03T03:49:00;98775.56;;;-0.75;72.21
65756;BME280;52489;47.502;18.940;2023-02-03T03:50:08;98775.16;;;-0.72;72.16
65756;BME280;52489;47.502;18.940;2023-02-03T03:51:22;98778.53;;;-0.71;71.64
65756;BME280;52489;47.502;18.940;2023-02-03T03:52:31;98780.50;;;-0.66;71.19
65756;BME280;52489;47.502;18.940;2023-02-03T03:53:39;98778.53;;;-0.64;71.45
65756;BME280;52489;47.502;18.940;2023-02-03T03:54:44;98773.75;;;-0.61;71.32
65756;BME280;52489;47.502;18.940;2023-02-03T03:55:50;98770.62;;;-0.70;71.31
65756;BME280;52489;47.502;18.940;2023-02-03T03:56:59;98769.84;;;-0.70;71.24
65756;BME280;52489;47.502;18.940;2023-02-03T03:58:10;98769.81;;;-0.63;70.99
65756;BME280;52489;47.502;18.940;2023-02-03T03:59:16;98764.66;;;-0.63;71.12
65756;BME280;52489;47.502;18.940;2023-02-03T04:00:23;98770.97;;;-0.59;70.48
65756;BME280;52489;47.502;18.940;2023-02-03T04:01:28;98780.50;;;-0.66;70.57
65756;BME280;52489;47.502;18.940;2023-02-03T04:02:33;98779.31;;;-0.64;70.47
65756;BME280;52489;47.502;18.940;2023-02-03T04:03:40;98777.12;;;-0.60;69.88
65756;BME280;52489;47.502;18.940;2023-02-03T04:04:47;98782.06;;;-0.65;70.26
65756;BME280;52489;47.502;18.940;2023-02-03T04:05:50;98786.41;;;-0.59;70.47
65756;BME280;52489;47.502;18.940;2023-02-03T04:06:53;98778.69;;;-0.59;70.00
65756;BME280;52489;47.502;18.940;2023-02-03T04:07:56;98775.31;;;-0.60;70.24
65756;BME280;52489;47.502;18.940;2023-02-03T04:08:59;98772.97;;;-0.61;70.20
65756;BME280;52489;47.502;18.940;2023-02-03T04:10:09;98781.09;;;-0.64;70.40
65756;BME280;52489;47.502;18.940;2023-02-03T04:11:14;98772.41;;;-0.70;70.53
65756;BME280;52489;47.502;18.940;2023-02-03T04:12:37;98775.56;;;-0.68;70.53
65756;BME280;52489;47.502;18.940;2023-02-03T04:13:41;98771.56;;;-0.57;70.22
65756;BME280;52489;47.502;18.940;2023-02-03T04:14:44;98776.28;;;-0.54;69.70
65756;BME280;52489;47.502;18.940;2023-02-03T04:15:47;98778.84;;;-0.48;69.63
65756;BME280;52489;47.502;18.940;2023-02-03T04:16:50;98769.16;;;-0.52;69.38
65756;BME280;52489;47.502;18.940;2023-02-03T04:17:53;98770.56;;;-0.56;69.27
65756;BME280;52489;47.502;18.940;2023-02-03T04:18:58;98763.25;;;-0.59;69.42
65756;BME280;52489;47.502;18.940;2023-02-03T04:20:04;98767.22;;;-0.63;69.04
65756;BME280;52489;47.502;18.940;2023-02-03T04:21:08;98763.50;;;-0.67;68.97
65756;BME280;52489;47.502;18.940;2023-02-03T04:22:14;98769.44;;;-0.67;69.27
65756;BME280;52489;47.502;18.940;2023-02-03T04:23:17;98759.72;;;-0.65;68.57
65756;BME280;52489;47.502;18.940;2023-02-03T04:24:20;98762.81;;;-0.50;68.53
65756;BME280;52489;47.502;18.940;2023-02-03T04:25:24;98761.44;;;-0.52;68.21
65756;BME280;52489;47.502;18.940;2023-02-03T04:26:27;98765.81;;;-0.59;68.11
65756;BME280;52489;47.502;18.940;2023-02-03T04:27:30;98754.97;;;-0.61;68.12
65756;BME280;52489;47.502;18.940;2023-02-03T04:28:33;98764.84;;;-0.58;68.12
65756;BME280;52489;47.502;18.940;2023-02-03T04:29:36;98765.06;;;-0.66;68.15
65756;BME280;52489;47.502;18.940;2023-02-03T04:30:39;98764.06;;;-0.65;67.84
65756;BME280;52489;47.502;18.940;2023-02-03T04:31:42;98762.66;;;-0.55;67.76
65756;BME280;52489;47.502;18.940;2023-02-03T04:32:45;98770.16;;;-0.53;67.81
65756;BME280;52489;47.502;18.940;2023-02-03T04:33:49;98766.41;;;-0.57;68.16
65756;BME280;52489;47.502;18.940;2023-02-03T04:34:51;98771.19;;;-0.61;67.84
65756;BME280;52489;47.502;18.940;2023-02-03T04:35:54;98772.75;;;-0.60;67.83
65756;BME280;52489;47.502;18.940;2023-02-03T04:36:57;98770.22;;;-0.66;68.36
65756;BME280;52489;47.502;18.940;2023-02-03T04:38:00;98774.56;;;-0.67;67.71
65756;BME280;52489;47.502;18.940;2023-02-03T04:39:03;98770.44;;;-0.68;67.20
65756;BME280;52489;47.502;18.940;2023-02-03T04:40:08;98763.09;;;-0.71;68.00
65756;BME280;52489;47.502;18.940;2023-02-03T04:41:11;98769.62;;;-0.62;67.45
65756;BME280;52489;47.502;18.940;2023-02-03T04:42:14;98759.88;;;-0.53;66.85
65756;BME280;52489;47.502;18.940;2023-02-03T04:43:20;98766.22;;;-0.56;67.37
65756;BME280;52489;47.502;18.940;2023-02-03T04:44:23;98761.47;;;-0.59;66.88
65756;BME280;52489;47.502;18.940;2023-02-03T04:45:26;98768.38;;;-0.59;66.66
65756;BME280;52489;47.502;18.940;2023-02-03T04:46:29;98773.13;;;-0.56;67.02
65756;BME280;52489;47.502;18.940;2023-02-03T04:47:32;98780.28;;;-0.58;66.98
65756;BME280;52489;47.502;18.940;2023-02-03T04:48:36;98786.25;;;-0.64;67.32
65756;BME280;52489;47.502;18.940;2023-02-03T04:49:39;98783.03;;;-0.53;67.49
65756;BME280;52489;47.502;18.940;2023-02-03T04:50:42;98786.81;;;-0.56;67.42
65756;BME280;52489;47.502;18.940;2023-02-03T04:51:47;98790.53;;;-0.52;67.18
65756;BME280;52489;47.502;18.940;2023-02-03T04:52:50;98787.78;;;-0.57;66.91
65756;BME280;52489;47.502;18.940;2023-02-03T04:53:53;98788.97;;;-0.53;67.43
65756;BME280;52489;47.502;18.940;2023-02-03T04:54:56;98776.28;;;-0.54;67.28
65756;BME280;52489;47.502;18.940;2023-02-03T04:56:00;98762.44;;;-0.53;67.24
65756;BME280;52489;47.502;18.940;2023-02-03T04:57:03;98768.94;;;-0.51;66.86
65756;BME280;52489;47.502;18.940;2023-02-03T04:58:07;98770.31;;;-0.48;66.99
65756;BME280;52489;47.502;18.940;2023-02-03T04:59:10;98773.31;;;-0.51;66.92
65756;BME280;52489;47.502;18.940;2023-02-03T05:00:14;98775.69;;;-0.50;67.01
65756;BME280;52489;47.502;18.940;2023-02-03T05:01:17;98771.72;;;-0.46;66.58
65756;BME280;52489;47.502;18.940;2023-02-03T05:02:20;98772.53;;;-0.52;66.40
65756;BME280;52489;47.502;18.940;2023-02-03T05:03:23;98782.78;;;-0.45;66.51
65756;BME280;52489;47.502;18.940;2023-02-03T05:04:27;98773.87;;;-0.42;66.59
65756;BME280;52489;47.502;18.940;2023-02-03T05:05:30;98772.06;;;-0.35;66.51
65756;BME280;52489;47.502;18.940;2023-02-03T05:06:34;98774.84;;;-0.37;66.49
65756;BME280;52489;47.502;18.940;2023-02-03T05:07:37;98767.16;;;-0.43;66.60
65756;BME280;52489;47.502;18.940;2023-02-03T05:08:40;98763.16;;;-0.39;66.01
65756;BME280;52489;47.502;18.940;2023-02-03T05:09:42;98762.78;;;-0.43;65.30
65756;BME280;52489;47.502;18.940;2023-02-03T05:10:45;98766.75;;;-0.40;65.30
65756;BME280;52489;47.502;18.940;2023-02-03T05:11:48;98765.13;;;-0.35;65.16
65756;BME280;52489;47.502;18.940;2023-02-03T05:12:51;98774.09;;;-0.44;65.85
65756;BME280;52489;47.502;18.940;2023-02-03T05:13:54;98776.84;;;-0.46;66.22
65756;BME280;52489;47.502;18.940;2023-02-03T05:14:57;98779.06;;;-0.49;66.13
65756;BME280;52489;47.502;18.940;2023-02-03T05:16:00;98780.22;;;-0.45;66.52
65756;BME280;52489;47.502;18.940;2023-02-03T05:17:03;98777.06;;;-0.47;66.29
65756;BME280;52489;47.502;18.940;2023-02-03T05:18:06;98769.13;;;-0.46;66.09
65756;BME280;52489;47.502;18.940;2023-02-03T05:19:09;98774.09;;;-0.44;66.08
65756;BME280;52489;47.502;18.940;2023-02-03T05:20:12;98770.12;;;-0.47;66.32
65756;BME280;52489;47.502;18.940;2023-02-03T05:21:15;98779.81;;;-0.42;66.29
65756;BME280;52489;47.502;18.940;2023-02-03T05:22:18;98787.72;;;-0.37;66.46
65756;BME280;52489;47.502;18.940;2023-02-03T05:23:21;98781.56;;;-0.36;66.75
65756;BME280;52489;47.502;18.940;2023-02-03T05:24:23;98785.34;;;-0.38;66.79
65756;BME280;52489;47.502;18.940;2023-02-03T05:25:26;98784.13;;;-0.36;66.53
65756;BME280;52489;47.502;18.940;2023-02-03T05:26:29;98788.53;;;-0.43;66.51
65756;BME280;52489;47.502;18.940;2023-02-03T05:27:32;98797.81;;;-0.42;66.43
65756;BME280;52489;47.502;18.940;2023-02-03T05:28:35;98796.44;;;-0.44;66.28
65756;BME280;52489;47.502;18.940;2023-02-03T05:29:38;98793.88;;;-0.44;67.11
65756;BME280;52489;47.502;18.940;2023-02-03T05:30:41;98799.41;;;-0.41;66.74
65756;BME280;52489;47.502;18.940;2023-02-03T05:31:44;98800.25;;;-0.47;66.78
65756;BME280;52489;47.502;18.940;2023-02-03T05:32:48;98803.59;;;-0.47;66.65
65756;BME280;52489;47.502;18.940;2023-02-03T05:33:51;98794.69;;;-0.44;66.17
65756;BME280;52489;47.502;18.940;2023-02-03T05:34:54;98797.81;;;-0.42;66.40
65756;BME280;52489;47.502;18.940;2023-02-03T05:35:57;98788.13;;;-0.40;65.63
65756;BME280;52489;47.502;18.940;2023-02-03T05:37:00;98779.97;;;-0.37;65.84
65756;BME280;52489;47.502;18.940;2023-02-03T05:38:05;98795.66;;;-0.38;65.98
65756;BME280;52489;47.502;18.940;2023-02-03T05:39:07;98799.38;;;-0.34;66.46
65756;BME280;52489;47.502;18.940;2023-02-03T05:40:11;98805.31;;;-0.34;66.30
65756;BME280;52489;47.502;18.940;2023-02-03T05:41:33;98805.75;;;-0.43;66.90
65756;BME280;52489;47.502;18.940;2023-02-03T05:42:54;98802.97;;;-0.42;67.15
65756;BME280;52489;47.502;18.940;2023-02-03T05:43:56;98797.81;;;-0.35;66.84
65756;BME280;52489;47.502;18.940;2023-02-03T05:44:59;98806.31;;;-0.35;66.34
65756;BME280;52489;47.502;18.940;2023-02-03T05:46:04;98796.63;;;-0.39;66.38
65756;BME280;52489;47.502;18.940;2023-02-03T05:47:07;98806.59;;;-0.56;66.88
65756;BME280;52489;47.502;18.940;2023-02-03T05:48:11;98797.66;;;-0.47;67.20
65756;BME280;52489;47.502;18.940;2023-02-03T05:49:14;98802.41;;;-0.44;67.05
65756;BME280;52489;47.502;18.940;2023-02-03T05:50:18;98800.25;;;-0.47;67.27
65756;BME280;52489;47.502;18.940;2023-02-03T05:51:21;98796.47;;;-0.51;67.65
65756;BME280;52489;47.502;18.940;2023-02-03T05:52:24;98797.03;;;-0.42;67.47
65756;BME280;52489;47.502;18.940;2023-02-03T05:53:27;98792.50;;;-0.47;67.79
65756;BME280;52489;47.502;18.940;2023-02-03T05:54:30;98796.63;;;-0.39;67.59
65756;BME280;52489;47.502;18.940;2023-02-03T05:55:33;98802.19;;;-0.42;67.03
65756;BME280;52489;47.502;18.940;2023-02-03T05:56:36;98806.91;;;-0.39;67.04
65756;BME280;52489;47.502;18.940;2023-02-03T05:57:40;98800.81;;;-0.45;67.59
65756;BME280;52489;47.502;18.940;2023-02-03T05:58:43;98807.75;;;-0.46;67.71
65756;BME280;52489;47.502;18.940;2023-02-03T05:59:47;98804.37;;;-0.46;68.06
65756;BME280;52489;47.502;18.940;2023-02-03T06:00:51;98799.00;;;-0.44;68.10
65756;BME280;52489;47.502;18.940;2023-02-03T06:01:54;98798.22;;;-0.38;68.28
65756;BME280;52489;47.502;18.940;2023-02-03T06:02:59;98788.72;;;-0.44;68.32
65756;BME280;52489;47.502;18.940;2023-02-03T06:04:04;98795.69;;;-0.52;68.00
65756;BME280;52489;47.502;18.940;2023-02-03T06:05:08;98798.06;;;-0.50;68.75
65756;BME280;52489;47.502;18.940;2023-02-03T06:06:11;98803.16;;;-0.37;68.60